KLM89F EHAM-LFBD
Flight info
| Callsign | KLM89F |
|---|---|
| Flight time | 1h 21m |
| Altitude | 23000 |
| Route | WOODY N872 CIV/N0453F350 N872 MEDIL DCT KOVIN DCT DUCRA UM728 RESMI UN857 DISAK DCT ARKIP DCT ARNAV DCT LMG |
| Aircraft | B738/M-SDE2E3FGIJ1RWY/LB1 |
Departure
| Time | 2026-05-06 18:44 |
|---|---|
| Airport | Amsterdam Airport Schiphol (EHAM) |
Arrival
| Time | 2026-05-06 20:05 |
|---|---|
| Airport | Bordeaux–Mérignac Airport (LFBD) |
| Time | Latitude | Longitude | Altitude | Speed | Heading |
|---|---|---|---|---|---|
| 2026-05-06 18:08 | 52.31006 | 4.77175 | 7 ft | 0 kts | 183° |
| 2026-05-06 18:30 | 52.31016 | 4.77176 | 7 ft | 2 kts | 183° |
| 2026-05-06 18:30 | 52.31031 | 4.77177 | 7 ft | 2 kts | 183° |
| 2026-05-06 18:30 | 52.31046 | 4.77178 | 7 ft | 2 kts | 183° |
| 2026-05-06 18:30 | 52.31060 | 4.77180 | 7 ft | 2 kts | 183° |
| 2026-05-06 18:31 | 52.31070 | 4.77180 | 7 ft | 1 kts | 185° |
| 2026-05-06 18:31 | 52.31077 | 4.77176 | 7 ft | 1 kts | 121° |
| 2026-05-06 18:31 | 52.31079 | 4.77168 | 7 ft | 0 kts | 85° |
| 2026-05-06 18:31 | 52.31079 | 4.77158 | 7 ft | 0 kts | 92° |
| 2026-05-06 18:34 | 52.31079 | 4.77171 | 7 ft | 3 kts | 92° |
| 2026-05-06 18:34 | 52.31077 | 4.77257 | 7 ft | 11 kts | 92° |
| 2026-05-06 18:35 | 52.31073 | 4.77418 | 6 ft | 13 kts | 102° |
| 2026-05-06 18:35 | 52.30999 | 4.77484 | 5 ft | 13 kts | 182° |
| 2026-05-06 18:35 | 52.30906 | 4.77476 | 5 ft | 13 kts | 183° |
| 2026-05-06 18:35 | 52.30788 | 4.77465 | 5 ft | 21 kts | 184° |
| 2026-05-06 18:36 | 52.30654 | 4.77436 | 4 ft | 16 kts | 213° |
| 2026-05-06 18:36 | 52.30588 | 4.77285 | 4 ft | 16 kts | 238° |
| 2026-05-06 18:36 | 52.30514 | 4.77091 | 3 ft | 24 kts | 238° |
| 2026-05-06 18:36 | 52.30412 | 4.76825 | 1 ft | 29 kts | 238° |
| 2026-05-06 18:37 | 52.30305 | 4.76546 | 0 ft | 28 kts | 238° |
| 2026-05-06 18:37 | 52.30201 | 4.76274 | 0 ft | 28 kts | 237° |
| 2026-05-06 18:37 | 52.30097 | 4.76005 | -1 ft | 27 kts | 238° |
| 2026-05-06 18:37 | 52.29997 | 4.75742 | 0 ft | 26 kts | 238° |
| 2026-05-06 18:38 | 52.29900 | 4.75491 | -1 ft | 24 kts | 238° |
| 2026-05-06 18:38 | 52.29831 | 4.75286 | -1 ft | 18 kts | 260° |
| 2026-05-06 18:38 | 52.29885 | 4.75109 | 0 ft | 18 kts | 313° |
| 2026-05-06 18:38 | 52.29982 | 4.74931 | 0 ft | 22 kts | 311° |
| 2026-05-06 18:39 | 52.30087 | 4.74743 | -3 ft | 22 kts | 314° |
| 2026-05-06 18:39 | 52.30193 | 4.74545 | -6 ft | 23 kts | 310° |
| 2026-05-06 18:39 | 52.30294 | 4.74354 | -9 ft | 21 kts | 311° |
| 2026-05-06 18:40 | 52.30318 | 4.74024 | -11 ft | 15 kts | 216° |
| 2026-05-06 18:40 | 52.30255 | 4.73954 | -11 ft | 7 kts | 214° |
| 2026-05-06 18:40 | 52.30236 | 4.73933 | -11 ft | 0 kts | 214° |
| 2026-05-06 18:42 | 52.30236 | 4.73932 | -11 ft | 1 kts | 214° |
| 2026-05-06 18:42 | 52.30210 | 4.73902 | -11 ft | 7 kts | 219° |
| 2026-05-06 18:42 | 52.30188 | 4.73801 | -11 ft | 9 kts | 272° |
| 2026-05-06 18:42 | 52.30208 | 4.73737 | -11 ft | 6 kts | 355° |
| 2026-05-06 18:43 | 52.30256 | 4.73737 | -11 ft | 11 kts | 3° |
| 2026-05-06 18:43 | 52.30592 | 4.73770 | -10 ft | 89 kts | 6° |
| 2026-05-06 18:43 | 52.31455 | 4.73860 | -5 ft | 158 kts | 3° |
| 2026-05-06 18:43 | 52.32650 | 4.73910 | 589 ft | 173 kts | 7° |
| 2026-05-06 18:44 | 52.33740 | 4.74209 | 1745 ft | 158 kts | 22° |
| 2026-05-06 18:44 | 52.34692 | 4.74897 | 2515 ft | 154 kts | 26° |
| 2026-05-06 18:44 | 52.35683 | 4.75575 | 3099 ft | 161 kts | 24° |
| 2026-05-06 18:44 | 52.36681 | 4.76444 | 3701 ft | 166 kts | 41° |
| 2026-05-06 18:45 | 52.37327 | 4.78082 | 4161 ft | 184 kts | 73° |
| 2026-05-06 18:45 | 52.37404 | 4.80237 | 4670 ft | 202 kts | 95° |
| 2026-05-06 18:45 | 52.36945 | 4.82509 | 5113 ft | 226 kts | 121° |
| 2026-05-06 18:45 | 52.35733 | 4.84272 | 5691 ft | 247 kts | 152° |
| 2026-05-06 18:46 | 52.34025 | 4.85017 | 6284 ft | 264 kts | 174° |
| 2026-05-06 18:46 | 52.32163 | 4.85047 | 6860 ft | 279 kts | 180° |
| 2026-05-06 18:46 | 52.30217 | 4.84941 | 7623 ft | 285 kts | 181° |
| 2026-05-06 18:46 | 52.28231 | 4.84843 | 8417 ft | 290 kts | 181° |
| 2026-05-06 18:47 | 52.26214 | 4.84775 | 9248 ft | 293 kts | 181° |
| 2026-05-06 18:47 | 52.24181 | 4.84726 | 10052 ft | 296 kts | 181° |
| 2026-05-06 18:47 | 52.22103 | 4.84683 | 10637 ft | 308 kts | 181° |
| 2026-05-06 18:47 | 52.19907 | 4.84639 | 11127 ft | 322 kts | 181° |
| 2026-05-06 18:48 | 52.17627 | 4.84593 | 11556 ft | 338 kts | 181° |
| 2026-05-06 18:48 | 52.15230 | 4.84544 | 12015 ft | 353 kts | 181° |
| 2026-05-06 18:48 | 52.12734 | 4.84495 | 12583 ft | 364 kts | 181° |
| 2026-05-06 18:48 | 52.10165 | 4.84444 | 12929 ft | 370 kts | 181° |
| 2026-05-06 18:49 | 52.07603 | 4.84393 | 12952 ft | 369 kts | 181° |
| 2026-05-06 18:49 | 52.05067 | 4.84343 | 12933 ft | 366 kts | 181° |
| 2026-05-06 18:49 | 52.02516 | 4.84105 | 12937 ft | 368 kts | 189° |
| 2026-05-06 18:49 | 52.00052 | 4.83040 | 12936 ft | 367 kts | 202° |
| 2026-05-06 18:50 | 51.97733 | 4.81357 | 12943 ft | 369 kts | 207° |
| 2026-05-06 18:50 | 51.95410 | 4.79426 | 13521 ft | 376 kts | 209° |
| 2026-05-06 18:50 | 51.93127 | 4.77499 | 14471 ft | 373 kts | 209° |
| 2026-05-06 18:50 | 51.90847 | 4.75599 | 15245 ft | 375 kts | 208° |
| 2026-05-06 18:51 | 51.88485 | 4.73665 | 15972 ft | 378 kts | 208° |
| 2026-05-06 18:51 | 51.86147 | 4.71788 | 16659 ft | 382 kts | 208° |
| 2026-05-06 18:51 | 51.83743 | 4.69888 | 17347 ft | 385 kts | 207° |
| 2026-05-06 18:51 | 51.81330 | 4.68001 | 18015 ft | 388 kts | 207° |
| 2026-05-06 18:52 | 51.78887 | 4.66100 | 18662 ft | 391 kts | 207° |
| 2026-05-06 18:52 | 51.76445 | 4.64207 | 19308 ft | 394 kts | 207° |
| 2026-05-06 18:52 | 51.73963 | 4.62285 | 19968 ft | 396 kts | 207° |
| 2026-05-06 18:52 | 51.71479 | 4.60364 | 20583 ft | 399 kts | 207° |
| 2026-05-06 18:53 | 51.68940 | 4.58404 | 21189 ft | 402 kts | 207° |
| 2026-05-06 18:53 | 51.66418 | 4.56459 | 21787 ft | 404 kts | 207° |
| 2026-05-06 18:53 | 51.63893 | 4.54516 | 22359 ft | 407 kts | 207° |
| 2026-05-06 18:53 | 51.61342 | 4.52554 | 22857 ft | 410 kts | 207° |
| 2026-05-06 18:54 | 51.58738 | 4.50556 | 22937 ft | 413 kts | 207° |
| 2026-05-06 18:54 | 51.56179 | 4.48597 | 22932 ft | 410 kts | 207° |
| 2026-05-06 18:54 | 51.53587 | 4.46613 | 23175 ft | 418 kts | 207° |
| 2026-05-06 18:54 | 51.50965 | 4.44607 | 23772 ft | 417 kts | 207° |
| 2026-05-06 18:55 | 51.48328 | 4.42591 | 23934 ft | 419 kts | 207° |
| 2026-05-06 18:55 | 51.45726 | 4.40604 | 23931 ft | 416 kts | 207° |
| 2026-05-06 18:55 | 51.43128 | 4.38621 | 23931 ft | 415 kts | 207° |
| 2026-05-06 18:55 | 51.40521 | 4.36631 | 23930 ft | 416 kts | 207° |
| 2026-05-06 18:56 | 51.37897 | 4.34633 | 24010 ft | 422 kts | 206° |
| 2026-05-06 18:56 | 51.35253 | 4.32622 | 24659 ft | 422 kts | 206° |
| 2026-05-06 18:56 | 51.32603 | 4.30610 | 25225 ft | 424 kts | 206° |
| 2026-05-06 18:56 | 51.29919 | 4.28574 | 25744 ft | 427 kts | 206° |
| 2026-05-06 18:57 | 51.27211 | 4.26520 | 26257 ft | 430 kts | 206° |
| 2026-05-06 18:57 | 51.24518 | 4.24477 | 26719 ft | 433 kts | 206° |
| 2026-05-06 18:57 | 51.21783 | 4.22403 | 27189 ft | 436 kts | 206° |
| 2026-05-06 18:57 | 51.19081 | 4.20357 | 27628 ft | 439 kts | 206° |
| 2026-05-06 18:58 | 51.16273 | 4.18263 | 28054 ft | 443 kts | 204° |
| 2026-05-06 18:58 | 51.13419 | 4.16407 | 28519 ft | 446 kts | 201° |
| 2026-05-06 18:58 | 51.10515 | 4.14742 | 29050 ft | 446 kts | 200° |
| 2026-05-06 18:58 | 51.07605 | 4.13182 | 29782 ft | 442 kts | 199° |
| 2026-05-06 18:59 | 51.04711 | 4.11668 | 30329 ft | 441 kts | 199° |
| 2026-05-06 18:59 | 51.01818 | 4.10159 | 30883 ft | 440 kts | 199° |
| 2026-05-06 18:59 | 50.98903 | 4.08629 | 31294 ft | 441 kts | 199° |
| 2026-05-06 18:59 | 50.95971 | 4.07076 | 31596 ft | 443 kts | 199° |
| 2026-05-06 19:00 | 50.93083 | 4.05535 | 31923 ft | 444 kts | 199° |
| 2026-05-06 19:00 | 50.90122 | 4.03945 | 32112 ft | 449 kts | 199° |
| 2026-05-06 19:00 | 50.87294 | 4.02414 | 32487 ft | 448 kts | 200° |
| 2026-05-06 19:00 | 50.84343 | 4.00692 | 32932 ft | 447 kts | 202° |
| 2026-05-06 19:01 | 50.81473 | 3.98891 | 33319 ft | 446 kts | 202° |
| 2026-05-06 19:01 | 50.78605 | 3.97031 | 33685 ft | 445 kts | 203° |
| 2026-05-06 19:01 | 50.75760 | 3.95168 | 34015 ft | 444 kts | 203° |
| 2026-05-06 19:01 | 50.72887 | 3.93288 | 34292 ft | 444 kts | 203° |
| 2026-05-06 19:02 | 50.70046 | 3.91436 | 34490 ft | 446 kts | 203° |
| 2026-05-06 19:02 | 50.67166 | 3.89570 | 34699 ft | 444 kts | 203° |
| 2026-05-06 19:02 | 50.64314 | 3.87732 | 34880 ft | 445 kts | 202° |
| 2026-05-06 19:03 | 50.58597 | 3.84076 | 34909 ft | 444 kts | 202° |
| 2026-05-06 19:03 | 50.52915 | 3.80361 | 34911 ft | 444 kts | 204° |
| 2026-05-06 19:04 | 50.47250 | 3.76478 | 34914 ft | 444 kts | 204° |
| 2026-05-06 19:04 | 50.41619 | 3.72600 | 34911 ft | 444 kts | 204° |
| 2026-05-06 19:05 | 50.35963 | 3.68729 | 34911 ft | 445 kts | 204° |
| 2026-05-06 19:05 | 50.30279 | 3.64865 | 34907 ft | 445 kts | 204° |
| 2026-05-06 19:06 | 50.24604 | 3.61030 | 34914 ft | 444 kts | 204° |
| 2026-05-06 19:06 | 50.18943 | 3.57217 | 34929 ft | 445 kts | 204° |
| 2026-05-06 19:07 | 50.13260 | 3.53400 | 34920 ft | 445 kts | 204° |
| 2026-05-06 19:07 | 50.07592 | 3.49604 | 34921 ft | 446 kts | 204° |
| 2026-05-06 19:08 | 50.01930 | 3.45822 | 34919 ft | 446 kts | 204° |
| 2026-05-06 19:08 | 49.96232 | 3.42026 | 34910 ft | 446 kts | 204° |
| 2026-05-06 19:09 | 49.90521 | 3.38230 | 34919 ft | 447 kts | 204° |
| 2026-05-06 19:09 | 49.84814 | 3.34447 | 34928 ft | 447 kts | 203° |
| 2026-05-06 19:10 | 49.79135 | 3.30694 | 34941 ft | 448 kts | 203° |
| 2026-05-06 19:10 | 49.73404 | 3.26914 | 34915 ft | 447 kts | 203° |
| 2026-05-06 19:11 | 49.67672 | 3.23144 | 34917 ft | 447 kts | 203° |
| 2026-05-06 19:11 | 49.61975 | 3.19407 | 34916 ft | 447 kts | 203° |
| 2026-05-06 19:12 | 49.56260 | 3.15667 | 34929 ft | 449 kts | 203° |
| 2026-05-06 19:12 | 49.50524 | 3.11883 | 34921 ft | 449 kts | 205° |
| 2026-05-06 19:13 | 49.45063 | 3.07290 | 34933 ft | 449 kts | 212° |
| 2026-05-06 19:13 | 49.39854 | 3.02078 | 34948 ft | 449 kts | 214° |
| 2026-05-06 19:14 | 49.34670 | 2.96714 | 34961 ft | 449 kts | 214° |
| 2026-05-06 19:14 | 49.29503 | 2.91396 | 34941 ft | 448 kts | 214° |
| 2026-05-06 19:15 | 49.24316 | 2.86110 | 34945 ft | 450 kts | 214° |
| 2026-05-06 19:15 | 49.19104 | 2.80843 | 34945 ft | 450 kts | 214° |
| 2026-05-06 19:16 | 49.13873 | 2.75584 | 34943 ft | 450 kts | 214° |
| 2026-05-06 19:16 | 49.08669 | 2.70372 | 34933 ft | 450 kts | 214° |
| 2026-05-06 19:17 | 49.03407 | 2.65119 | 34944 ft | 451 kts | 214° |
| 2026-05-06 19:17 | 48.98147 | 2.59882 | 34947 ft | 450 kts | 214° |
| 2026-05-06 19:18 | 48.92918 | 2.54688 | 34946 ft | 449 kts | 214° |
| 2026-05-06 19:18 | 48.87716 | 2.49533 | 34947 ft | 450 kts | 214° |
| 2026-05-06 19:19 | 48.82468 | 2.44345 | 34949 ft | 451 kts | 214° |
| 2026-05-06 19:19 | 48.77217 | 2.39168 | 34943 ft | 452 kts | 214° |
| 2026-05-06 19:20 | 48.71932 | 2.33972 | 34948 ft | 452 kts | 213° |
| 2026-05-06 19:20 | 48.66665 | 2.28806 | 34935 ft | 451 kts | 213° |
| 2026-05-06 19:21 | 48.61387 | 2.23663 | 34942 ft | 451 kts | 211° |
| 2026-05-06 19:21 | 48.55655 | 2.20007 | 34941 ft | 453 kts | 198° |
| 2026-05-06 19:22 | 48.49563 | 2.17403 | 34939 ft | 453 kts | 195° |
| 2026-05-06 19:22 | 48.43515 | 2.14953 | 34943 ft | 454 kts | 195° |
| 2026-05-06 19:23 | 48.37447 | 2.12387 | 34933 ft | 454 kts | 196° |
| 2026-05-06 19:23 | 48.31381 | 2.09727 | 34939 ft | 454 kts | 197° |
| 2026-05-06 19:24 | 48.25327 | 2.07029 | 34943 ft | 453 kts | 197° |
| 2026-05-06 19:24 | 48.19296 | 2.04327 | 34940 ft | 453 kts | 197° |
| 2026-05-06 19:25 | 48.13260 | 2.01623 | 34945 ft | 454 kts | 197° |
| 2026-05-06 19:25 | 48.07236 | 1.98929 | 34952 ft | 455 kts | 197° |
| 2026-05-06 19:26 | 48.01164 | 1.96221 | 34944 ft | 456 kts | 197° |
| 2026-05-06 19:26 | 47.95092 | 1.93520 | 34947 ft | 456 kts | 197° |
| 2026-05-06 19:27 | 47.89030 | 1.90832 | 34944 ft | 455 kts | 197° |
| 2026-05-06 19:27 | 47.82980 | 1.88154 | 34949 ft | 455 kts | 197° |
| 2026-05-06 19:28 | 47.76910 | 1.85474 | 34960 ft | 454 kts | 197° |
| 2026-05-06 19:28 | 47.70830 | 1.82796 | 34962 ft | 456 kts | 197° |
| 2026-05-06 19:29 | 47.64785 | 1.80140 | 34960 ft | 456 kts | 197° |
| 2026-05-06 19:29 | 47.58696 | 1.77471 | 34961 ft | 456 kts | 197° |
| 2026-05-06 19:30 | 47.52599 | 1.74806 | 34961 ft | 457 kts | 197° |
| 2026-05-06 19:30 | 47.46545 | 1.72165 | 34956 ft | 456 kts | 198° |
| 2026-05-06 19:31 | 47.40476 | 1.69525 | 34963 ft | 457 kts | 198° |
| 2026-05-06 19:31 | 47.31357 | 1.65569 | 34957 ft | 456 kts | 198° |
| 2026-05-06 19:32 | 47.25240 | 1.62922 | 34969 ft | 457 kts | 198° |
| 2026-05-06 19:32 | 47.19191 | 1.60313 | 34964 ft | 457 kts | 198° |
| 2026-05-06 19:33 | 47.13108 | 1.57695 | 34957 ft | 457 kts | 198° |
| 2026-05-06 19:33 | 47.06992 | 1.55069 | 34955 ft | 457 kts | 198° |
| 2026-05-06 19:34 | 47.00903 | 1.52460 | 34964 ft | 457 kts | 198° |
| 2026-05-06 19:34 | 46.94816 | 1.49859 | 34960 ft | 456 kts | 198° |
| 2026-05-06 19:35 | 46.88874 | 1.47327 | 34955 ft | 456 kts | 198° |
| 2026-05-06 19:35 | 46.82809 | 1.44746 | 34955 ft | 456 kts | 198° |
| 2026-05-06 19:36 | 46.76709 | 1.42157 | 34965 ft | 457 kts | 198° |
| 2026-05-06 19:36 | 46.70585 | 1.39565 | 34960 ft | 457 kts | 198° |
| 2026-05-06 19:37 | 46.64520 | 1.37003 | 34945 ft | 456 kts | 198° |
| 2026-05-06 19:37 | 46.58428 | 1.34437 | 34960 ft | 456 kts | 197° |
| 2026-05-06 19:38 | 46.52323 | 1.31871 | 34947 ft | 456 kts | 197° |
| 2026-05-06 19:38 | 46.46252 | 1.29326 | 34952 ft | 456 kts | 197° |
| 2026-05-06 19:39 | 46.40166 | 1.26779 | 34948 ft | 456 kts | 198° |
| 2026-05-06 19:39 | 46.34052 | 1.24226 | 34945 ft | 457 kts | 198° |
| 2026-05-06 19:40 | 46.27984 | 1.21699 | 34943 ft | 457 kts | 198° |
| 2026-05-06 19:40 | 46.21867 | 1.19157 | 34940 ft | 456 kts | 197° |
| 2026-05-06 19:41 | 46.15765 | 1.16628 | 34948 ft | 456 kts | 197° |
| 2026-05-06 19:41 | 46.09684 | 1.14114 | 34927 ft | 456 kts | 198° |
| 2026-05-06 19:42 | 46.03631 | 1.11617 | 34942 ft | 456 kts | 198° |
| 2026-05-06 19:42 | 45.97525 | 1.09103 | 34938 ft | 456 kts | 198° |
| 2026-05-06 19:43 | 45.91450 | 1.06606 | 34867 ft | 456 kts | 198° |
| 2026-05-06 19:43 | 45.88422 | 1.05360 | 34534 ft | 452 kts | 198° |
| 2026-05-06 19:43 | 45.85438 | 1.03898 | 34005 ft | 450 kts | 204° |
| 2026-05-06 19:44 | 45.82655 | 1.01851 | 33352 ft | 450 kts | 216° |
| 2026-05-06 19:44 | 45.80217 | 0.99091 | 32631 ft | 451 kts | 227° |
| 2026-05-06 19:44 | 45.78114 | 0.95788 | 31775 ft | 453 kts | 234° |
| 2026-05-06 19:44 | 45.76181 | 0.92270 | 31136 ft | 451 kts | 236° |
| 2026-05-06 19:45 | 45.74313 | 0.88662 | 30485 ft | 448 kts | 237° |
| 2026-05-06 19:45 | 45.72507 | 0.85084 | 29871 ft | 445 kts | 238° |
| 2026-05-06 19:45 | 45.70713 | 0.81501 | 29265 ft | 441 kts | 238° |
| 2026-05-06 19:45 | 45.68949 | 0.77976 | 28667 ft | 437 kts | 237° |
| 2026-05-06 19:46 | 45.67182 | 0.74461 | 28069 ft | 434 kts | 237° |
| 2026-05-06 19:46 | 45.65442 | 0.71014 | 27482 ft | 430 kts | 237° |
| 2026-05-06 19:46 | 45.63696 | 0.67575 | 26886 ft | 427 kts | 237° |
| 2026-05-06 19:46 | 45.61971 | 0.64190 | 26297 ft | 423 kts | 237° |
| 2026-05-06 19:47 | 45.60233 | 0.60792 | 25707 ft | 420 kts | 237° |
| 2026-05-06 19:47 | 45.58535 | 0.57481 | 25120 ft | 417 kts | 237° |
| 2026-05-06 19:47 | 45.56816 | 0.54137 | 24522 ft | 413 kts | 237° |
| 2026-05-06 19:47 | 45.55146 | 0.50896 | 23951 ft | 410 kts | 237° |
| 2026-05-06 19:48 | 45.53469 | 0.47643 | 23377 ft | 407 kts | 237° |
| 2026-05-06 19:48 | 45.51791 | 0.44392 | 22794 ft | 404 kts | 236° |
| 2026-05-06 19:48 | 45.50148 | 0.41210 | 22222 ft | 401 kts | 236° |
| 2026-05-06 19:48 | 45.48506 | 0.38035 | 21651 ft | 398 kts | 236° |
| 2026-05-06 19:49 | 45.46916 | 0.34964 | 21066 ft | 394 kts | 235° |
| 2026-05-06 19:49 | 45.45268 | 0.31791 | 20503 ft | 379 kts | 235° |
| 2026-05-06 19:49 | 45.43736 | 0.28846 | 20033 ft | 373 kts | 235° |
| 2026-05-06 19:49 | 45.42201 | 0.25903 | 19673 ft | 367 kts | 234° |
| 2026-05-06 19:50 | 45.40537 | 0.23141 | 19053 ft | 369 kts | 227° |
| 2026-05-06 19:50 | 45.38650 | 0.20729 | 18546 ft | 367 kts | 219° |
| 2026-05-06 19:50 | 45.36562 | 0.18647 | 18045 ft | 365 kts | 214° |
| 2026-05-06 19:50 | 45.34410 | 0.16769 | 17543 ft | 363 kts | 212° |
| 2026-05-06 19:51 | 45.32243 | 0.14958 | 17003 ft | 362 kts | 211° |
| 2026-05-06 19:51 | 45.30073 | 0.13167 | 16373 ft | 363 kts | 211° |
| 2026-05-06 19:51 | 45.27901 | 0.11376 | 15747 ft | 364 kts | 211° |
| 2026-05-06 19:51 | 45.25748 | 0.09600 | 15002 ft | 358 kts | 211° |
| 2026-05-06 19:52 | 45.23605 | 0.07829 | 14126 ft | 355 kts | 211° |
| 2026-05-06 19:52 | 45.21492 | 0.06082 | 13466 ft | 349 kts | 211° |
| 2026-05-06 19:52 | 45.19407 | 0.04358 | 12855 ft | 350 kts | 211° |
| 2026-05-06 19:52 | 45.17310 | 0.02625 | 12225 ft | 347 kts | 211° |
| 2026-05-06 19:53 | 45.15243 | 0.00920 | 11587 ft | 346 kts | 211° |
| 2026-05-06 19:53 | 45.13196 | -0.00765 | 11037 ft | 334 kts | 211° |
| 2026-05-06 19:53 | 45.11234 | -0.02372 | 10557 ft | 322 kts | 211° |
| 2026-05-06 19:53 | 45.09354 | -0.03904 | 10267 ft | 304 kts | 211° |
| 2026-05-06 19:54 | 45.07566 | -0.05353 | 10164 ft | 292 kts | 211° |
| 2026-05-06 19:54 | 45.05783 | -0.06789 | 9901 ft | 296 kts | 211° |
| 2026-05-06 19:54 | 45.04003 | -0.08218 | 9508 ft | 295 kts | 211° |
| 2026-05-06 19:54 | 45.02224 | -0.09645 | 9126 ft | 295 kts | 211° |
| 2026-05-06 19:55 | 45.00436 | -0.11075 | 8745 ft | 294 kts | 211° |
| 2026-05-06 19:55 | 44.98673 | -0.12479 | 8368 ft | 293 kts | 211° |
| 2026-05-06 19:55 | 44.96914 | -0.13882 | 7992 ft | 292 kts | 211° |
| 2026-05-06 19:55 | 44.95146 | -0.15297 | 7611 ft | 291 kts | 211° |
| 2026-05-06 19:56 | 44.93393 | -0.16703 | 7205 ft | 287 kts | 211° |
| 2026-05-06 19:56 | 44.91690 | -0.18068 | 6861 ft | 277 kts | 211° |
| 2026-05-06 19:56 | 44.90051 | -0.19383 | 6507 ft | 268 kts | 211° |
| 2026-05-06 19:56 | 44.88449 | -0.20665 | 6167 ft | 261 kts | 212° |
| 2026-05-06 19:57 | 44.86891 | -0.21901 | 5834 ft | 254 kts | 211° |
| 2026-05-06 19:57 | 44.85358 | -0.23108 | 5527 ft | 250 kts | 211° |
| 2026-05-06 19:57 | 44.83838 | -0.24305 | 5236 ft | 250 kts | 211° |
| 2026-05-06 19:57 | 44.82319 | -0.25494 | 4945 ft | 250 kts | 211° |
| 2026-05-06 19:58 | 44.80790 | -0.26682 | 4615 ft | 251 kts | 212° |
| 2026-05-06 19:58 | 44.79374 | -0.28059 | 4275 ft | 248 kts | 231° |
| 2026-05-06 19:58 | 44.78518 | -0.30125 | 3953 ft | 242 kts | 256° |
| 2026-05-06 19:58 | 44.78100 | -0.32396 | 3630 ft | 241 kts | 261° |
| 2026-05-06 19:59 | 44.77745 | -0.34676 | 3313 ft | 241 kts | 262° |
| 2026-05-06 19:59 | 44.77391 | -0.36957 | 3000 ft | 235 kts | 261° |
| 2026-05-06 19:59 | 44.77049 | -0.39139 | 2971 ft | 223 kts | 261° |
| 2026-05-06 19:59 | 44.76764 | -0.41214 | 2973 ft | 210 kts | 269° |
| 2026-05-06 20:00 | 44.76863 | -0.43218 | 2979 ft | 207 kts | 287° |
| 2026-05-06 20:00 | 44.77242 | -0.45160 | 2978 ft | 206 kts | 291° |
| 2026-05-06 20:00 | 44.77666 | -0.47077 | 2980 ft | 205 kts | 291° |
| 2026-05-06 20:00 | 44.78069 | -0.48954 | 2974 ft | 194 kts | 290° |
| 2026-05-06 20:01 | 44.78442 | -0.50723 | 2984 ft | 179 kts | 291° |
| 2026-05-06 20:01 | 44.78792 | -0.52360 | 2786 ft | 175 kts | 291° |
| 2026-05-06 20:01 | 44.79142 | -0.53992 | 2544 ft | 173 kts | 291° |
| 2026-05-06 20:01 | 44.79486 | -0.55608 | 2293 ft | 171 kts | 291° |
| 2026-05-06 20:02 | 44.79822 | -0.57190 | 2057 ft | 167 kts | 291° |
| 2026-05-06 20:02 | 44.80151 | -0.58737 | 1828 ft | 164 kts | 291° |
| 2026-05-06 20:02 | 44.80464 | -0.60214 | 1616 ft | 155 kts | 291° |
| 2026-05-06 20:02 | 44.80762 | -0.61613 | 1460 ft | 142 kts | 291° |
| 2026-05-06 20:03 | 44.81043 | -0.62935 | 1208 ft | 138 kts | 291° |
| 2026-05-06 20:03 | 44.81309 | -0.64192 | 1036 ft | 135 kts | 290° |
| 2026-05-06 20:03 | 44.81581 | -0.65475 | 852 ft | 136 kts | 289° |
| 2026-05-06 20:03 | 44.81852 | -0.66758 | 670 ft | 136 kts | 288° |
| 2026-05-06 20:04 | 44.82117 | -0.68016 | 473 ft | 136 kts | 287° |
| 2026-05-06 20:04 | 44.82399 | -0.69309 | 315 ft | 135 kts | 289° |
| 2026-05-06 20:04 | 44.82657 | -0.70547 | 166 ft | 128 kts | 287° |
| 2026-05-06 20:04 | 44.82844 | -0.71434 | 167 ft | 60 kts | 287° |
| 2026-05-06 20:05 | 44.82934 | -0.71863 | 165 ft | 41 kts | 286° |
| 2026-05-06 20:05 | 44.82981 | -0.72082 | 164 ft | 13 kts | 287° |
| 2026-05-06 20:05 | 44.83042 | -0.72122 | 164 ft | 8 kts | 2° |
| 2026-05-06 20:05 | 44.83104 | -0.72107 | 164 ft | 8 kts | 14° |
| 2026-05-06 20:06 | 44.83154 | -0.72069 | 164 ft | 7 kts | 49° |
| 2026-05-06 20:06 | 44.83162 | -0.72001 | 164 ft | 7 kts | 99° |
| 2026-05-06 20:06 | 44.83149 | -0.71931 | 163 ft | 7 kts | 105° |
| 2026-05-06 20:06 | 44.83131 | -0.71845 | 163 ft | 12 kts | 107° |
| 2026-05-06 20:07 | 44.83098 | -0.71691 | 163 ft | 19 kts | 106° |
| 2026-05-06 20:07 | 44.83062 | -0.71513 | 165 ft | 18 kts | 106° |
| 2026-05-06 20:07 | 44.83026 | -0.71347 | 165 ft | 17 kts | 106° |
| 2026-05-06 20:07 | 44.82992 | -0.71184 | 165 ft | 17 kts | 106° |
| 2026-05-06 20:08 | 44.82964 | -0.71046 | 167 ft | 13 kts | 106° |
| 2026-05-06 20:08 | 44.82937 | -0.70914 | 164 ft | 15 kts | 105° |
| 2026-05-06 20:08 | 44.82907 | -0.70771 | 165 ft | 13 kts | 106° |
| 2026-05-06 20:08 | 44.82879 | -0.70640 | 154 ft | 18 kts | 107° |
| 2026-05-06 20:09 | 44.82866 | -0.70499 | 156 ft | 8 kts | 68° |
| 2026-05-06 20:09 | 44.82906 | -0.70424 | 153 ft | 10 kts | 40° |
| 2026-05-06 20:09 | 44.82946 | -0.70372 | 153 ft | 8 kts | 44° |
| 2026-05-06 20:09 | 44.82966 | -0.70345 | 156 ft | 0 kts | 46° |
| 2026-05-06 20:10 | 44.82974 | -0.70330 | 159 ft | 0 kts | 57° |
| 2026-05-06 20:10 | 44.82970 | -0.70337 | 158 ft | 1 kts | 53° |
| 2026-05-06 20:10 | 44.82979 | -0.70316 | 161 ft | 6 kts | 69° |
| 2026-05-06 20:10 | 44.82980 | -0.70311 | 161 ft | 0 kts | 71° |
| 2026-05-06 20:11 | 44.82982 | -0.70294 | 161 ft | 0 kts | 84° |